createdAt,value
2023-01-10T00:01:46.160Z,97419.76
2023-01-10T00:04:14.207Z,97421.70
2023-01-10T00:06:42.331Z,97423.08
2023-01-10T00:09:11.705Z,97420.11
2023-01-10T00:11:58.797Z,97416.90
2023-01-10T00:14:29.073Z,97411.79
2023-01-10T00:16:57.550Z,97427.35
2023-01-10T00:19:25.681Z,97432.21
2023-01-10T00:21:54.601Z,97435.50
2023-01-10T00:24:24.204Z,97432.38
2023-01-10T00:26:52.416Z,97433.71
2023-01-10T00:29:23.632Z,97441.06
2023-01-10T00:31:51.940Z,97441.30
2023-01-10T00:34:20.278Z,97445.61
2023-01-10T00:36:48.786Z,97449.95
2023-01-10T00:39:19.620Z,97447.01
2023-01-10T00:42:06.896Z,97447.70
2023-01-10T00:44:34.976Z,97456.13
2023-01-10T00:47:03.010Z,97461.50
2023-01-10T00:49:31.171Z,97466.65
2023-01-10T00:52:00.236Z,97468.40
2023-01-10T00:54:28.426Z,97471.35
2023-01-10T00:56:57.001Z,97475.06
2023-01-10T00:59:25.140Z,97478.66
2023-01-10T01:01:53.232Z,97480.27
2023-01-10T01:04:21.822Z,97485.87
2023-01-10T01:06:50.915Z,97488.85
2023-01-10T01:09:19.080Z,97493.77
2023-01-10T01:11:47.258Z,97490.10
2023-01-10T01:14:15.393Z,97496.02
2023-01-10T01:16:43.352Z,97498.77
2023-01-10T01:19:12.700Z,97501.37
2023-01-10T01:21:40.886Z,97503.95
2023-01-10T01:24:11.208Z,97505.45
2023-01-10T01:26:40.133Z,97503.09
2023-01-10T01:29:08.220Z,97507.91
2023-01-10T01:31:36.273Z,97511.25
2023-01-10T01:34:05.102Z,97511.02
2023-01-10T01:36:33.053Z,97514.17
2023-01-10T01:39:01.101Z,97517.35
2023-01-10T01:41:47.588Z,97517.00
2023-01-10T01:44:18.014Z,97518.48
2023-01-10T01:47:25.265Z,97520.04
2023-01-10T01:49:54.362Z,97521.81
2023-01-10T01:52:29.372Z,97519.31
2023-01-10T01:54:59.558Z,97518.74
2023-01-10T01:57:32.006Z,97516.63
2023-01-10T02:00:02.884Z,97522.73
2023-01-10T02:03:01.772Z,97521.89
2023-01-10T02:05:34.430Z,97518.38
2023-01-10T02:08:03.032Z,97520.98
2023-01-10T02:10:44.602Z,97523.58
2023-01-10T02:13:16.432Z,97527.58
2023-01-10T02:15:44.486Z,97529.48
2023-01-10T02:18:13.001Z,97528.41
2023-01-10T02:20:58.110Z,97527.16
2023-01-10T02:23:32.229Z,97533.06
2023-01-10T02:26:27.318Z,97532.75
2023-01-10T02:29:17.517Z,97534.84
2023-01-10T02:32:10.535Z,97542.06
2023-01-10T02:34:57.542Z,97548.19
2023-01-10T02:37:46.921Z,97549.77
2023-01-10T02:40:40.754Z,97557.17
2023-01-10T02:43:23.928Z,97556.18
2023-01-10T02:46:05.967Z,97556.25
2023-01-10T02:48:34.292Z,97556.73
2023-01-10T02:51:10.166Z,97561.74
2023-01-10T02:53:44.913Z,97565.41
2023-01-10T02:56:12.778Z,97571.53
2023-01-10T02:59:09.473Z,97572.05
2023-01-10T03:01:49.741Z,97572.18
2023-01-10T03:04:20.855Z,97579.10
2023-01-10T03:07:08.521Z,97583.46
2023-01-10T03:10:01.815Z,97582.34
2023-01-10T03:12:58.687Z,97590.89
2023-01-10T03:15:32.818Z,97595.73
2023-01-10T03:18:04.549Z,97600.14
2023-01-10T03:20:33.808Z,97600.77
2023-01-10T03:23:05.831Z,97606.55
2023-01-10T03:25:37.811Z,97616.34
2023-01-10T03:28:18.190Z,97616.91
2023-01-10T03:30:51.189Z,97618.12
2023-01-10T03:33:25.284Z,97617.34
2023-01-10T03:36:17.412Z,97626.80
2023-01-10T03:38:56.324Z,97630.26
2023-01-10T03:41:36.956Z,97631.57
2023-01-10T03:44:42.048Z,97635.23
2023-01-10T03:47:13.215Z,97641.88
2023-01-10T03:49:45.586Z,97641.23
2023-01-10T03:52:16.765Z,97650.47
2023-01-10T03:54:46.119Z,97656.68
2023-01-10T03:57:22.225Z,97663.48
2023-01-10T03:59:54.946Z,97669.98
2023-01-10T04:02:22.893Z,97675.41
2023-01-10T04:04:50.993Z,97674.14
2023-01-10T04:07:19.000Z,97676.49
2023-01-10T04:09:47.060Z,97670.05
2023-01-10T04:12:15.973Z,97683.66
2023-01-10T04:14:47.222Z,97690.09
2023-01-10T04:17:16.911Z,97697.21
2023-01-10T04:19:45.772Z,97696.60
2023-01-10T04:22:14.293Z,97698.88
2023-01-10T04:24:44.262Z,97702.90
2023-01-10T04:27:12.174Z,97706.56
2023-01-10T04:29:40.213Z,97708.13
2023-01-10T04:32:08.218Z,97703.48
2023-01-10T04:34:36.189Z,97714.58
2023-01-10T04:37:04.327Z,97716.48
2023-01-10T04:39:32.279Z,97716.27
2023-01-10T04:42:00.367Z,97720.02
2023-01-10T04:44:28.426Z,97720.63
2023-01-10T04:46:56.385Z,97723.33
2023-01-10T04:49:24.329Z,97726.55
2023-01-10T04:51:52.269Z,97730.59
2023-01-10T04:54:22.059Z,97736.45
2023-01-10T04:56:50.269Z,97740.16
2023-01-10T04:59:18.795Z,97743.89
2023-01-10T05:01:46.811Z,97747.63
2023-01-10T05:04:15.070Z,97748.46
2023-01-10T05:06:42.977Z,97752.02
2023-01-10T05:09:10.940Z,97759.05
2023-01-10T05:11:39.015Z,97761.73
2023-01-10T05:14:07.054Z,97749.55
2023-01-10T05:16:36.724Z,97772.23
2023-01-10T05:19:04.853Z,97774.83
2023-01-10T05:21:32.771Z,97779.55
2023-01-10T05:24:00.835Z,97784.25
2023-01-10T05:26:28.839Z,97784.66
2023-01-10T05:28:56.790Z,97791.27
2023-01-10T05:31:24.851Z,97793.54
2023-01-10T05:33:52.898Z,97793.77
2023-01-10T05:36:20.824Z,97796.06
2023-01-10T05:38:48.727Z,97809.67
2023-01-10T05:41:16.759Z,97819.81
2023-01-10T05:43:44.685Z,97824.59
2023-01-10T05:46:12.828Z,97828.64
2023-01-10T05:48:41.265Z,97824.80
2023-01-10T05:51:09.372Z,97829.93
2023-01-10T05:53:37.441Z,97840.57
2023-01-10T05:56:07.760Z,97842.19
2023-01-10T05:58:36.124Z,97842.41
2023-01-10T06:01:04.328Z,97843.99
2023-01-10T06:03:32.279Z,97845.08
2023-01-10T06:06:00.293Z,97845.90
2023-01-10T06:08:28.189Z,97845.73
2023-01-10T06:10:56.252Z,97848.37
2023-01-10T06:13:24.529Z,97854.93
2023-01-10T06:15:52.522Z,97863.58
2023-01-10T06:18:20.524Z,97859.67
2023-01-10T06:20:48.464Z,97864.48
2023-01-10T06:23:16.463Z,97866.73
2023-01-10T06:25:44.686Z,97870.41
2023-01-10T06:28:14.077Z,97877.29
2023-01-10T06:30:43.643Z,97878.91
2023-01-10T06:33:12.557Z,97884.60
2023-01-10T06:35:40.604Z,97887.52
2023-01-10T06:38:09.084Z,97893.83
2023-01-10T06:40:37.191Z,97899.73
2023-01-10T06:43:05.421Z,97900.52
2023-01-10T06:45:33.700Z,97901.69
2023-01-10T06:48:01.850Z,97907.70
2023-01-10T06:50:30.199Z,97899.42
2023-01-10T06:53:00.418Z,97916.14
2023-01-10T06:55:29.328Z,97921.51
2023-01-10T06:57:59.683Z,97933.24
2023-01-10T07:00:29.534Z,97933.98
2023-01-10T07:03:03.063Z,97941.46
2023-01-10T07:05:31.062Z,97943.48
2023-01-10T07:08:01.554Z,97948.16
2023-01-10T07:10:29.884Z,97950.52
2023-01-10T07:12:58.969Z,97950.39
2023-01-10T07:15:28.268Z,97951.45
2023-01-10T07:17:58.670Z,97955.42
2023-01-10T07:20:27.605Z,97953.08
2023-01-10T07:23:00.691Z,97955.44
2023-01-10T07:25:29.672Z,97948.23
2023-01-10T07:27:58.095Z,97964.30
2023-01-10T07:30:26.330Z,97960.89
2023-01-10T07:32:58.312Z,97959.84
2023-01-10T07:35:26.527Z,97964.95
2023-01-10T07:37:54.476Z,97966.41
2023-01-10T07:40:42.792Z,97969.72
2023-01-10T07:43:10.887Z,97976.83
2023-01-10T07:45:38.893Z,97977.85
2023-01-10T07:48:06.997Z,97979.74
2023-01-10T07:50:35.839Z,97980.64
2023-01-10T07:53:06.481Z,97979.27
2023-01-10T07:55:38.911Z,97983.80
2023-01-10T07:58:10.810Z,97985.86
2023-01-10T08:00:38.801Z,97986.70
2023-01-10T08:03:06.957Z,97987.52
2023-01-10T08:05:35.164Z,97988.81
2023-01-10T08:08:08.400Z,97987.39
2023-01-10T08:10:37.672Z,97990.11
2023-01-10T08:13:17.800Z,98000.17
2023-01-10T08:15:50.498Z,98010.17
2023-01-10T08:18:20.421Z,98018.82
2023-01-10T08:20:53.338Z,98015.27
2023-01-10T08:23:21.955Z,98017.99
2023-01-10T08:25:51.711Z,98014.02
2023-01-10T08:28:19.687Z,98014.35
2023-01-10T08:30:50.302Z,98014.60
2023-01-10T08:33:18.531Z,98019.20
2023-01-10T08:35:46.431Z,98026.94
2023-01-10T08:38:14.448Z,98031.69
2023-01-10T08:40:42.701Z,98034.55
2023-01-10T08:43:12.648Z,98034.56
2023-01-10T08:45:41.299Z,98037.92
2023-01-10T08:48:10.271Z,98036.48
2023-01-10T08:50:38.177Z,98037.44
2023-01-10T08:54:07.232Z,98041.94
2023-01-10T08:56:37.639Z,98044.60
2023-01-10T08:59:06.226Z,98050.72
2023-01-10T09:01:35.201Z,98062.66
2023-01-10T09:04:03.442Z,98069.86
2023-01-10T09:06:31.469Z,98071.60
2023-01-10T09:08:59.482Z,98076.11
2023-01-10T09:11:27.739Z,98081.80
2023-01-10T09:13:55.908Z,98082.31
2023-01-10T09:16:24.126Z,98087.45
2023-01-10T09:18:52.126Z,98091.16
2023-01-10T09:21:20.454Z,98091.13
2023-01-10T09:23:48.727Z,98107.73
2023-01-10T09:26:16.685Z,98111.38
2023-01-10T09:28:45.079Z,98110.95
2023-01-10T09:31:13.738Z,98106.52
2023-01-10T09:33:47.219Z,98110.55
2023-01-10T09:36:16.187Z,98117.17
2023-01-10T09:38:44.656Z,98122.48
2023-01-10T09:41:15.653Z,98123.53
2023-01-10T09:44:05.400Z,98122.48
2023-01-10T09:47:08.406Z,98127.13
2023-01-10T09:49:57.845Z,98131.71
2023-01-10T09:52:35.420Z,98132.63
2023-01-10T09:55:32.185Z,98134.16
2023-01-10T09:58:10.633Z,98137.77
2023-01-10T10:00:42.438Z,98137.06
2023-01-10T10:03:38.106Z,98142.06
2023-01-10T10:06:12.711Z,98149.66
2023-01-10T10:08:43.469Z,98150.48
2023-01-10T10:11:43.534Z,98154.33
2023-01-10T10:14:20.491Z,98157.77
2023-01-10T10:17:27.767Z,98157.73
2023-01-10T10:20:17.674Z,98157.39
2023-01-10T10:22:53.490Z,98157.52
2023-01-10T10:25:48.390Z,98155.55
2023-01-10T10:28:54.607Z,98161.98
2023-01-10T10:31:51.543Z,98164.95
2023-01-10T10:34:36.934Z,98169.53
2023-01-10T10:37:33.729Z,98173.84
2023-01-10T10:40:18.747Z,98177.71
2023-01-10T10:42:54.515Z,98182.30
2023-01-10T10:45:57.710Z,98183.95
2023-01-10T10:48:34.725Z,98182.73
2023-01-10T10:51:05.009Z,98183.94
2023-01-10T10:53:34.479Z,98187.20
2023-01-10T10:56:05.383Z,98184.13
2023-01-10T10:58:34.724Z,98187.36
2023-01-10T11:01:02.877Z,98188.13
2023-01-10T11:03:43.079Z,98191.77
2023-01-10T11:07:11.424Z,98193.07
2023-01-10T11:09:51.468Z,98201.41
2023-01-10T11:12:25.381Z,98204.94
2023-01-10T11:15:33.579Z,98204.69
2023-01-10T11:18:14.186Z,98212.60
2023-01-10T11:20:48.318Z,98215.88
2023-01-10T11:23:31.248Z,98222.63
2023-01-10T11:26:36.766Z,98221.24
2023-01-10T11:29:24.942Z,98221.77
2023-01-10T11:31:56.486Z,98222.93
2023-01-10T11:34:32.372Z,98229.64
2023-01-10T11:37:01.998Z,98235.84
2023-01-10T11:39:31.771Z,98238.19
2023-01-10T11:42:25.463Z,98237.41
2023-01-10T11:44:53.415Z,98238.52
2023-01-10T11:47:22.358Z,98241.16
2023-01-10T11:49:51.269Z,98240.56
2023-01-10T11:52:26.126Z,98245.26
2023-01-10T11:54:58.582Z,98251.41
2023-01-10T11:57:30.769Z,98250.93
2023-01-10T12:00:02.773Z,98258.73
2023-01-10T12:02:43.195Z,98264.22
2023-01-10T12:05:22.004Z,98272.21
2023-01-10T12:07:59.155Z,98272.60
2023-01-10T12:10:29.062Z,98275.39
2023-01-10T12:13:00.410Z,98278.21
2023-01-10T12:15:31.360Z,98280.30
2023-01-10T12:18:39.462Z,98283.25
2023-01-10T12:21:10.231Z,98284.20
2023-01-10T12:23:41.624Z,98286.59
2023-01-10T12:26:13.302Z,98290.72
2023-01-10T12:28:53.417Z,98294.93
2023-01-10T12:31:23.240Z,98297.31
2023-01-10T12:34:27.737Z,98302.58
2023-01-10T12:37:51.576Z,98308.68
2023-01-10T12:40:35.881Z,98310.69
2023-01-10T12:43:33.995Z,98313.59
2023-01-10T12:47:00.134Z,98316.89
2023-01-10T12:49:26.007Z,98320.86
2023-01-10T12:51:58.587Z,98325.02
2023-01-10T12:54:30.829Z,98327.48
2023-01-10T12:57:03.110Z,98330.43
2023-01-10T12:59:43.262Z,98336.45
2023-01-10T13:02:18.805Z,98334.14
2023-01-10T13:04:56.564Z,98337.88
2023-01-10T13:08:04.931Z,98339.60
2023-01-10T13:10:37.132Z,98340.85
2023-01-10T13:13:30.997Z,98345.25
2023-01-10T13:16:24.341Z,98345.63
2023-01-10T13:19:04.490Z,98353.11
2023-01-10T13:21:34.855Z,98355.36
2023-01-10T13:24:13.857Z,98356.52
2023-01-10T13:26:57.301Z,98349.79
2023-01-10T13:29:29.671Z,98353.40
2023-01-10T13:32:02.109Z,98362.89
2023-01-10T13:34:35.795Z,98366.13
2023-01-10T13:37:23.114Z,98364.96
2023-01-10T13:39:54.929Z,98371.31
2023-01-10T13:42:41.727Z,98375.55
2023-01-10T13:45:12.297Z,98376.44
2023-01-10T13:47:40.315Z,98380.11
2023-01-10T13:50:23.879Z,98384.10
2023-01-10T13:53:14.716Z,98386.48
2023-01-10T13:55:50.179Z,98392.88
2023-01-10T13:58:21.346Z,98392.05
2023-01-10T14:01:11.195Z,98399.15
2023-01-10T14:03:59.423Z,98398.02
2023-01-10T14:06:30.857Z,98402.75
2023-01-10T14:08:58.709Z,98405.74
2023-01-10T14:11:49.330Z,98406.38
2023-01-10T14:14:41.473Z,98407.52
2023-01-10T14:17:22.922Z,98413.08
2023-01-10T14:20:00.335Z,98417.48
2023-01-10T14:22:38.291Z,98422.44
2023-01-10T14:25:18.088Z,98421.98
2023-01-10T14:27:48.782Z,98422.39
2023-01-10T14:30:27.724Z,98419.23
2023-01-10T14:32:58.003Z,98424.78
2023-01-10T14:35:35.210Z,98425.41
2023-01-10T14:38:04.881Z,98423.88
2023-01-10T14:40:32.909Z,98429.95
2023-01-10T14:43:06.502Z,98431.85
2023-01-10T14:45:45.001Z,98438.98
2023-01-10T14:48:31.547Z,98444.48
2023-01-10T14:51:21.100Z,98444.51
2023-01-10T14:54:02.141Z,98449.22
2023-01-10T14:56:40.787Z,98458.12
2023-01-10T14:59:20.840Z,98463.77
2023-01-10T15:01:52.188Z,98471.89
2023-01-10T15:04:23.548Z,98473.73
2023-01-10T15:06:52.865Z,98479.68
2023-01-10T15:09:20.856Z,98477.30
2023-01-10T15:11:50.774Z,98478.73
2023-01-10T15:14:23.559Z,98474.63
2023-01-10T15:16:56.659Z,98478.95
2023-01-10T15:19:26.778Z,98488.51
2023-01-10T15:22:29.452Z,98496.90
2023-01-10T15:25:28.352Z,98494.30
2023-01-10T15:27:59.125Z,98494.88
2023-01-10T15:30:31.543Z,98499.27
2023-01-10T15:33:22.465Z,98499.73
2023-01-10T15:35:50.587Z,98496.63
2023-01-10T15:38:24.116Z,98495.58
2023-01-10T15:40:58.771Z,98495.05
2023-01-10T15:43:29.321Z,98495.31
2023-01-10T15:45:59.391Z,98494.48
2023-01-10T15:48:40.851Z,98493.90
2023-01-10T15:51:23.277Z,98500.58
2023-01-10T15:54:06.229Z,98509.42
2023-01-10T15:56:52.380Z,98510.95
2023-01-10T15:59:28.110Z,98512.48
2023-01-10T16:02:22.160Z,98511.66
2023-01-10T16:05:08.102Z,98511.45
2023-01-10T16:07:43.492Z,98518.70
2023-01-10T16:10:26.616Z,98518.90
2023-01-10T16:13:28.909Z,98525.66
2023-01-10T16:15:59.989Z,98524.85
2023-01-10T16:18:28.115Z,98524.98
2023-01-10T16:20:59.517Z,98527.48
2023-01-10T16:23:33.330Z,98525.23
2023-01-10T16:26:09.232Z,98524.53
2023-01-10T16:28:38.117Z,98528.73
2023-01-10T16:31:10.918Z,98531.38
2023-01-10T16:33:39.125Z,98539.96
2023-01-10T16:36:15.538Z,98545.45
2023-01-10T16:38:43.953Z,98550.02
2023-01-10T16:41:32.793Z,98554.36
2023-01-10T16:44:01.406Z,98551.85
2023-01-10T16:46:30.419Z,98558.15
2023-01-10T16:48:58.555Z,98557.90
2023-01-10T16:51:30.499Z,98565.27
2023-01-10T16:53:58.678Z,98567.70
2023-01-10T16:56:28.969Z,98570.52
2023-01-10T16:58:57.327Z,98574.77
2023-01-10T17:01:30.111Z,98582.24
2023-01-10T17:03:59.373Z,98586.76
2023-01-10T17:06:28.821Z,98595.50
2023-01-10T17:08:56.993Z,98598.11
2023-01-10T17:11:36.194Z,98603.83
2023-01-10T17:14:05.572Z,98607.92
2023-01-10T17:16:35.161Z,98613.55
2023-01-10T17:19:03.445Z,98617.07
2023-01-10T17:21:31.488Z,98620.10
2023-01-10T17:23:59.531Z,98624.80
2023-01-10T17:26:27.617Z,98632.58
2023-01-10T17:28:55.832Z,98641.27
2023-01-10T17:31:23.988Z,98646.92
2023-01-10T17:33:51.908Z,98651.10
2023-01-10T17:36:21.396Z,98656.34
2023-01-10T17:38:49.700Z,98660.08
2023-01-10T17:41:17.923Z,98663.58
2023-01-10T17:43:46.023Z,98663.59
2023-01-10T17:46:16.581Z,98657.27
2023-01-10T17:48:45.264Z,98659.38
2023-01-10T17:51:13.512Z,98654.83
2023-01-10T17:53:41.531Z,98657.98
2023-01-10T17:56:09.641Z,98662.09
2023-01-10T17:58:37.701Z,98660.84
2023-01-10T18:01:06.382Z,98669.05
2023-01-10T18:04:14.953Z,98667.61
2023-01-10T18:06:43.051Z,98670.88
2023-01-10T18:09:11.110Z,98670.92
2023-01-10T18:11:39.367Z,98671.69
2023-01-10T18:14:26.146Z,98676.05
2023-01-10T18:16:54.367Z,98674.77
2023-01-10T18:19:22.291Z,98675.24
2023-01-10T18:21:50.249Z,98671.45
2023-01-10T18:24:18.143Z,98668.24
2023-01-10T18:26:47.559Z,98675.29
2023-01-10T18:29:16.563Z,98678.64
2023-01-10T18:31:44.652Z,98679.38
2023-01-10T18:34:12.558Z,98684.13
2023-01-10T18:36:41.144Z,98683.86
2023-01-10T18:39:09.114Z,98687.42
2023-01-10T18:41:37.065Z,98685.58
2023-01-10T18:44:05.151Z,98690.98
2023-01-10T18:46:33.159Z,98687.55
2023-01-10T18:49:01.126Z,98684.51
2023-01-10T18:51:29.277Z,98686.19
2023-01-10T18:53:57.353Z,98688.36
2023-01-10T18:56:25.405Z,98691.40
2023-01-10T18:58:53.390Z,98690.94
2023-01-10T19:01:22.759Z,98695.90
2023-01-10T19:03:52.005Z,98696.70
2023-01-10T19:06:22.751Z,98704.01
2023-01-10T19:08:51.557Z,98704.39
2023-01-10T19:11:20.271Z,98702.76
2023-01-10T19:13:52.205Z,98696.73
2023-01-10T19:16:21.871Z,98701.03
2023-01-10T19:18:56.721Z,98698.46
2023-01-10T19:21:27.186Z,98697.63
2023-01-10T19:23:56.793Z,98696.60
2023-01-10T19:26:25.858Z,98703.48
2023-01-10T19:28:53.920Z,98710.52
2023-01-10T19:31:25.302Z,98710.59
2023-01-10T19:33:53.927Z,98708.64
2023-01-10T19:36:24.485Z,98711.80
2023-01-10T19:38:57.602Z,98718.58
2023-01-10T19:41:27.182Z,98724.05
2023-01-10T19:44:00.330Z,98721.85
2023-01-10T19:46:32.292Z,98721.50
2023-01-10T19:49:03.384Z,98723.78
2023-01-10T19:51:31.302Z,98726.15
2023-01-10T19:53:59.374Z,98722.26
2023-01-10T19:56:27.543Z,98721.46
2023-01-10T19:58:55.545Z,98719.23
2023-01-10T20:01:27.063Z,98727.42
2023-01-10T20:04:02.961Z,98729.15
2023-01-10T20:06:32.667Z,98730.80
2023-01-10T20:09:00.944Z,98730.10
2023-01-10T20:11:37.479Z,98730.79
2023-01-10T20:14:06.828Z,98733.04
2023-01-10T20:16:34.828Z,98728.50
2023-01-10T20:19:05.638Z,98725.67
2023-01-10T20:21:34.255Z,98730.96
2023-01-10T20:24:02.171Z,98729.39
2023-01-10T20:26:31.224Z,98735.02
2023-01-10T20:29:04.515Z,98732.83
2023-01-10T20:31:32.737Z,98727.97
2023-01-10T20:34:00.992Z,98727.94
2023-01-10T20:36:29.987Z,98729.83
2023-01-10T20:38:59.183Z,98726.71
2023-01-10T20:41:28.983Z,98729.14
2023-01-10T20:43:57.790Z,98729.26
2023-01-10T20:46:32.056Z,98741.41
2023-01-10T20:49:02.633Z,98740.31
2023-01-10T20:51:33.836Z,98738.54
2023-01-10T20:54:38.889Z,98734.19
2023-01-10T20:57:06.769Z,98742.33
2023-01-10T20:59:34.811Z,98742.16
2023-01-10T21:02:03.701Z,98741.70
2023-01-10T21:04:33.195Z,98748.48
2023-01-10T21:07:01.513Z,98753.24
2023-01-10T21:09:29.612Z,98753.73
2023-01-10T21:12:07.319Z,98748.52
2023-01-10T21:14:45.557Z,98754.27
2023-01-10T21:17:13.466Z,98749.39
2023-01-10T21:19:41.432Z,98754.81
2023-01-10T21:22:10.087Z,98752.95
2023-01-10T21:24:38.263Z,98753.39
2023-01-10T21:27:06.524Z,98755.66
2023-01-10T21:29:34.923Z,98754.09
2023-01-10T21:32:03.130Z,98762.41
2023-01-10T21:34:31.115Z,98770.80
2023-01-10T21:36:59.291Z,98777.17
2023-01-10T21:39:27.219Z,98779.46
2023-01-10T21:42:13.839Z,98777.73
2023-01-10T21:44:41.938Z,98776.59
2023-01-10T21:47:09.832Z,98782.64
2023-01-10T21:49:37.829Z,98791.27
2023-01-10T21:52:06.001Z,98787.10
2023-01-10T21:54:33.949Z,98787.21
2023-01-10T21:57:01.890Z,98787.02
2023-01-10T21:59:29.967Z,98788.27
2023-01-10T22:01:57.956Z,98784.77
2023-01-10T22:04:26.154Z,98783.02
2023-01-10T22:06:54.251Z,98780.87
2023-01-10T22:09:24.541Z,98775.61
2023-01-10T22:11:52.382Z,98779.15
2023-01-10T22:14:20.458Z,98778.98
2023-01-10T22:16:48.453Z,98773.98
2023-01-10T22:19:16.335Z,98780.91
2023-01-10T22:21:44.270Z,98777.71
2023-01-10T22:24:12.367Z,98777.31
2023-01-10T22:26:40.567Z,98779.99
2023-01-10T22:29:08.576Z,98783.80
2023-01-10T22:31:36.861Z,98774.59
2023-01-10T22:34:04.927Z,98773.70
2023-01-10T22:36:33.055Z,98778.07
2023-01-10T22:39:02.002Z,98782.80
2023-01-10T22:41:30.167Z,98785.27
2023-01-10T22:43:58.175Z,98789.11
2023-01-10T22:46:27.434Z,98789.65
2023-01-10T22:48:55.975Z,98783.06
2023-01-10T22:51:25.659Z,98785.27
2023-01-10T22:53:56.217Z,98781.35
2023-01-10T22:56:24.617Z,98778.51
2023-01-10T22:58:53.706Z,98780.11
2023-01-10T23:01:25.011Z,98779.86
2023-01-10T23:03:53.152Z,98779.32
2023-01-10T23:06:21.375Z,98784.38
2023-01-10T23:08:50.664Z,98778.92
2023-01-10T23:11:20.644Z,98779.67
2023-01-10T23:13:49.718Z,98782.27
2023-01-10T23:16:22.365Z,98780.63
2023-01-10T23:18:50.880Z,98778.69
2023-01-10T23:21:19.250Z,98778.59
2023-01-10T23:23:47.310Z,98778.36
2023-01-10T23:26:15.507Z,98777.13
2023-01-10T23:28:49.388Z,98776.22
2023-01-10T23:31:24.118Z,98781.58
2023-01-10T23:33:52.168Z,98776.35
2023-01-10T23:36:20.297Z,98774.21
2023-01-10T23:38:48.320Z,98775.79
2023-01-10T23:41:17.191Z,98774.91
2023-01-10T23:43:45.142Z,98775.66
2023-01-10T23:46:13.261Z,98776.94
2023-01-10T23:48:43.263Z,98779.41
2023-01-10T23:51:11.436Z,98780.30
2023-01-10T23:53:40.874Z,98774.66
2023-01-10T23:56:10.899Z,98778.79
2023-01-10T23:58:39.443Z,98784.52
